Time;durP1;ratioP1;P1;durP2;ratioP2;P2;SDS_P1;SDS_P2;PMS_P1;PMS_P2;Temp;Humidity;BMP_temperature;BMP_pressure;BME280_temperature;BME280_humidity;BME280_pressure;Samples;Min_cycle;Max_cycle;Signal;HPM_P1;HPM_P2
2023/06/15 00:00:24;;;;;;;4.33;3.70;;;17.10;94.00;;;;;;5111349;28;20515;-47
2023/06/15 00:02:51;;;;;;;4.30;3.10;;;17.00;94.20;;;;;;5111315;28;20452;-47
2023/06/15 00:05:18;;;;;;;5.80;3.83;;;17.10;94.40;;;;;;5109466;28;21067;-50
2023/06/15 00:07:47;;;;;;;4.43;3.37;;;17.00;94.10;;;;;;5111049;28;20533;-47
2023/06/15 00:10:14;;;;;;;4.20;3.53;;;17.10;94.30;;;;;;5111692;28;20511;-47
2023/06/15 00:12:41;;;;;;;5.93;3.40;;;16.90;94.10;;;;;;5111432;28;20928;-47
2023/06/15 00:15:08;;;;;;;5.43;3.40;;;16.90;94.90;;;;;;5110853;28;20495;-47
2023/06/15 00:17:37;;;;;;;5.70;3.13;;;16.70;94.20;;;;;;5110715;28;20495;-50
2023/06/15 00:20:08;;;;;;;5.47;3.70;;;16.70;94.60;;;;;;5111171;28;20476;-47
2023/06/15 00:22:36;;;;;;;4.10;3.30;;;16.70;95.10;;;;;;5109422;28;20442;-47
2023/06/15 00:25:05;;;;;;;4.03;3.37;;;16.60;96.10;;;;;;5110646;28;20473;-47
2023/06/15 00:27:32;;;;;;;4.53;3.40;;;16.70;95.30;;;;;;5110906;28;20929;-49
2023/06/15 00:29:59;;;;;;;4.67;3.63;;;16.20;95.90;;;;;;5110866;28;20973;-48
2023/06/15 00:32:26;;;;;;;5.40;3.70;;;16.30;95.50;;;;;;5114956;28;20525;-47
2023/06/15 00:34:53;;;;;;;4.60;3.47;;;16.30;96.20;;;;;;5114561;28;20522;-48
2023/06/15 00:37:19;;;;;;;3.77;3.20;;;16.30;96.10;;;;;;5114382;28;20441;-47
2023/06/15 00:39:46;;;;;;;5.30;3.20;;;16.40;96.00;;;;;;5115999;28;20540;-49
2023/06/15 00:42:15;;;;;;;4.30;3.53;;;16.40;95.80;;;;;;5114651;28;21009;-47
2023/06/15 00:44:42;;;;;;;4.23;2.97;;;16.40;96.60;;;;;;5114574;28;20966;-48
2023/06/15 00:47:10;;;;;;;4.20;3.40;;;16.40;96.40;;;;;;5114568;28;20528;-50
2023/06/15 00:49:37;;;;;;;4.60;3.17;;;16.30;96.00;;;;;;5114685;28;20527;-53
2023/06/15 00:52:05;;;;;;;4.37;3.70;;;;;;;;;;5114554;28;20866;-49
2023/06/15 00:54:33;;;;;;;5.00;3.70;;;16.30;96.00;;;;;;5114153;28;20439;-47
2023/06/15 00:57:01;;;;;;;4.00;3.07;;;16.30;95.60;;;;;;5114548;28;20461;-47
2023/06/15 00:59:29;;;;;;;3.90;3.37;;;16.30;95.90;;;;;;5114049;28;20476;-47
2023/06/15 01:01:56;;;;;;;4.60;3.57;;;16.40;95.50;;;;;;5114684;28;20483;-47
2023/06/15 01:04:25;;;;;;;3.87;3.10;;;16.40;95.90;;;;;;5112245;28;20540;-47
2023/06/15 01:06:56;;;;;;;4.40;3.50;;;16.50;95.90;;;;;;5114330;28;20996;-47
2023/06/15 01:09:25;;;;;;;4.60;3.17;;;16.50;96.10;;;;;;5113781;28;20711;-47
2023/06/15 01:11:55;;;;;;;4.57;3.80;;;16.50;96.00;;;;;;5114439;28;20444;-50
2023/06/15 01:14:24;;;;;;;5.90;4.07;;;16.40;96.70;;;;;;5112694;28;20500;-50
2023/06/15 01:16:57;;;;;;;4.67;3.90;;;16.30;95.60;;;;;;5114325;28;20858;-47
2023/06/15 01:19:40;;;;;;;3.97;3.03;;;16.30;96.00;;;;;;5113780;28;20493;-48
2023/06/15 01:22:20;;;;;;;8.90;3.70;;;16.20;96.30;;;;;;5112376;28;20486;-47
2023/06/15 01:24:57;;;;;;;5.43;3.60;;;16.10;96.20;;;;;;5113669;28;20469;-48
2023/06/15 01:27:25;;;;;;;3.77;3.10;;;16.10;96.50;;;;;;5113416;28;20531;-47
2023/06/15 01:29:54;;;;;;;4.80;3.97;;;15.90;95.80;;;;;;5113884;28;20515;-49
2023/06/15 01:32:21;;;;;;;6.17;3.50;;;15.90;96.20;;;;;;5113958;28;20445;-49
2023/06/15 01:34:49;;;;;;;5.77;3.60;;;15.80;96.40;;;;;;5113512;28;20445;-46
2023/06/15 01:37:16;;;;;;;4.27;3.87;;;15.80;97.30;;;;;;5113505;28;20827;-47
2023/06/15 01:39:43;;;;;;;3.50;3.20;;;15.90;97.00;;;;;;5113889;28;20545;-47
2023/06/15 01:42:12;;;;;;;8.33;3.70;;;15.90;97.60;;;;;;5112761;28;20501;-47
2023/06/15 01:44:41;;;;;;;5.80;3.97;;;15.90;97.40;;;;;;5113584;28;20439;-47
2023/06/15 01:47:11;;;;;;;5.00;3.50;;;15.90;98.10;;;;;;5113867;28;20436;-55
2023/06/15 01:49:39;;;;;;;5.50;4.00;;;15.90;97.10;;;;;;5113629;28;20545;-47
2023/06/15 01:52:07;;;;;;;4.80;3.87;;;15.80;97.60;;;;;;5113664;28;20536;-48
2023/06/15 01:54:34;;;;;;;4.73;3.50;;;15.90;97.30;;;;;;5112979;28;20461;-51
2023/06/15 01:57:01;;;;;;;4.93;3.43;;;15.90;97.20;;;;;;5113583;28;20436;-47
2023/06/15 01:59:28;;;;;;;3.70;2.97;;;15.90;97.50;;;;;;5112917;28;20496;-51
2023/06/15 02:01:56;;;;;;;4.17;3.47;;;15.90;97.50;;;;;;5113626;28;20492;-47
2023/06/15 02:04:23;;;;;;;6.23;4.20;;;15.90;98.00;;;;;;5110459;28;20967;-47
2023/06/15 02:06:51;;;;;;;4.20;3.27;;;15.80;98.00;;;;;;5113244;28;20586;-47
2023/06/15 02:09:18;;;;;;;4.60;3.57;;;15.70;98.40;;;;;;5112863;28;20503;-47
2023/06/15 02:11:45;;;;;;;3.80;3.17;;;15.60;98.40;;;;;;5113056;28;20534;-49
2023/06/15 02:14:12;;;;;;;3.87;3.20;;;15.60;98.00;;;;;;5113467;28;20956;-47
2023/06/15 02:16:39;;;;;;;5.40;3.63;;;15.60;98.20;;;;;;5112604;28;20470;-48
2023/06/15 02:19:07;;;;;;;5.37;3.57;;;15.60;97.50;;;;;;5112783;28;20445;-47
2023/06/15 02:21:35;;;;;;;5.47;4.00;;;15.60;97.80;;;;;;5110656;28;20476;-47
2023/06/15 02:24:01;;;;;;;5.30;3.43;;;15.60;97.80;;;;;;5113167;28;20440;-48
2023/06/15 02:26:28;;;;;;;4.90;3.73;;;15.70;98.30;;;;;;5112500;28;20476;-48
2023/06/15 02:28:55;;;;;;;4.17;3.33;;;15.70;98.20;;;;;;5112736;28;20530;-50
2023/06/15 02:31:23;;;;;;;6.20;3.53;;;15.70;98.50;;;;;;5112529;28;20541;-48
2023/06/15 02:33:50;;;;;;;4.50;3.23;;;15.60;98.50;;;;;;5112804;28;20506;-49
2023/06/15 02:36:19;;;;;;;6.50;3.63;;;15.50;97.60;;;;;;5112532;28;20441;-48
2023/06/15 02:38:46;;;;;;;4.47;3.60;;;15.50;97.70;;;;;;5112168;28;20990;-48
2023/06/15 02:41:13;;;;;;;7.50;3.80;;;15.40;98.20;;;;;;5112728;28;20546;-48
2023/06/15 02:43:40;;;;;;;8.23;4.03;;;15.50;98.00;;;;;;5112509;28;20449;-50
2023/06/15 02:46:07;;;;;;;5.30;3.97;;;15.50;97.90;;;;;;5111853;28;20509;-47
2023/06/15 02:48:34;;;;;;;3.87;3.43;;;15.50;98.20;;;;;;5112345;28;20438;-48
2023/06/15 02:51:02;;;;;;;4.10;3.50;;;15.40;98.20;;;;;;5112206;28;20488;-47
2023/06/15 02:53:30;;;;;;;4.77;3.33;;;15.50;98.00;;;;;;5112408;28;20450;-50
2023/06/15 02:55:57;;;;;;;3.73;3.20;;;15.40;98.10;;;;;;5111990;28;20481;-48
2023/06/15 02:58:25;;;;;;;4.97;4.37;;;15.40;97.70;;;;;;5111830;28;20438;-52
2023/06/15 03:00:52;;;;;;;4.67;3.90;;;15.40;98.70;;;;;;5112164;28;20984;-47
2023/06/15 03:03:27;;;;;;;4.83;4.20;;;15.30;98.90;;;;;;5111833;28;20443;-51
2023/06/15 03:05:54;;;;;;;8.63;4.17;;;15.30;98.40;;;;;;5111361;28;20999;-47
2023/06/15 03:08:23;;;;;;;4.47;3.80;;;15.30;99.00;;;;;;5111663;28;20469;-52
2023/06/15 03:10:52;;;;;;;7.17;3.90;;;15.30;98.80;;;;;;5112322;28;21007;-48
2023/06/15 03:13:19;;;;;;;7.70;4.23;;;15.30;98.90;;;;;;5111862;28;20448;-48
2023/06/15 03:15:48;;;;;;;5.00;3.90;;;15.40;97.80;;;;;;5111621;28;20446;-48
2023/06/15 03:18:15;;;;;;;5.30;4.40;;;15.40;98.40;;;;;;5111278;28;20450;-47
2023/06/15 03:20:43;;;;;;;6.10;4.00;;;15.40;98.00;;;;;;5111818;28;20545;-51
2023/06/15 03:23:12;;;;;;;4.60;3.37;;;15.40;98.20;;;;;;5109935;28;20440;-48
2023/06/15 03:25:39;;;;;;;6.10;3.90;;;15.40;99.10;;;;;;5111231;28;20479;-48
2023/06/15 03:28:07;;;;;;;4.93;4.40;;;15.50;99.50;;;;;;5111545;28;20466;-47
2023/06/15 03:30:35;;;;;;;6.90;4.43;;;15.40;99.90;;;;;;5111445;28;20459;-51
2023/06/15 03:33:02;;;;;;;5.83;4.00;;;15.40;99.90;;;;;;5111741;28;20486;-48
2023/06/15 03:35:30;;;;;;;4.20;3.07;;;15.30;99.40;;;;;;5111001;28;20450;-48
2023/06/15 03:37:57;;;;;;;4.50;3.83;;;15.20;98.90;;;;;;5111463;28;20442;-51
2023/06/15 03:40:23;;;;;;;3.60;2.87;;;15.10;99.90;;;;;;5111607;28;20879;-47
2023/06/15 03:42:50;;;;;;;4.30;3.30;;;15.20;99.90;;;;;;5111952;28;20449;-47
2023/06/15 03:45:19;;;;;;;5.60;3.73;;;15.20;99.10;;;;;;5111366;28;20476;-47
2023/06/15 03:47:47;;;;;;;4.67;3.70;;;15.10;99.60;;;;;;5111332;28;20525;-48
2023/06/15 03:50:14;;;;;;;4.37;3.97;;;15.10;99.90;;;;;;5111175;28;20459;-48
2023/06/15 03:52:40;;;;;;;5.40;4.07;;;15.20;99.90;;;;;;5111399;28;20523;-47
2023/06/15 03:55:08;;;;;;;6.70;4.20;;;15.20;99.90;;;;;;5111271;28;20806;-49
2023/06/15 03:57:35;;;;;;;4.63;4.10;;;15.20;99.90;;;;;;5111542;28;20521;-47
2023/06/15 04:00:05;;;;;;;4.00;3.13;;;15.30;99.90;;;;;;5111597;28;20465;-47
2023/06/15 04:02:33;;;;;;;4.73;3.77;;;15.30;99.90;;;;;;5111207;28;20477;-52
2023/06/15 04:05:02;;;;;;;7.03;4.50;;;15.30;99.90;;;;;;5109175;28;20529;-55
2023/06/15 04:07:29;;;;;;;6.30;4.77;;;15.30;99.90;;;;;;5114892;28;20481;-48
2023/06/15 04:09:56;;;;;;;5.10;4.30;;;15.10;99.90;;;;;;5115400;28;20523;-48
2023/06/15 04:12:24;;;;;;;5.33;3.50;;;15.10;99.90;;;;;;5115677;28;20482;-47
2023/06/15 04:14:50;;;;;;;4.63;3.60;;;15.20;99.90;;;;;;5115431;28;20464;-48
2023/06/15 04:17:18;;;;;;;4.57;3.60;;;15.10;99.90;;;;;;5115153;28;20466;-48
2023/06/15 04:19:46;;;;;;;9.33;4.67;;;15.10;99.90;;;;;;5115356;28;20573;-50
2023/06/15 04:22:14;;;;;;;5.50;3.70;;;15.10;99.90;;;;;;5112941;28;20445;-48
2023/06/15 04:24:41;;;;;;;4.73;3.60;;;15.20;99.90;;;;;;5114846;28;20459;-48
2023/06/15 04:27:12;;;;;;;5.47;4.30;;;15.20;99.90;;;;;;5114959;28;20581;-48
2023/06/15 04:29:45;;;;;;;4.60;3.90;;;15.10;99.90;;;;;;5115319;28;20430;-52
2023/06/15 04:32:12;;;;;;;5.93;4.20;;;15.10;99.90;;;;;;5115198;28;20452;-48
2023/06/15 04:34:39;;;;;;;7.50;4.70;;;15.00;99.90;;;;;;5104546;28;20899;-48
2023/06/15 04:37:08;;;;;;;9.23;4.60;;;15.00;99.90;;;;;;5108500;28;20439;-48
2023/06/15 04:39:35;;;;;;;5.23;4.33;;;14.80;99.90;;;;;;5113255;28;20470;-51
2023/06/15 04:42:02;;;;;;;5.80;4.70;;;14.80;99.90;;;;;;5114814;28;20521;-49
2023/06/15 04:44:29;;;;;;;4.73;3.57;;;14.80;99.90;;;;;;5104219;28;20441;-48
2023/06/15 04:46:56;;;;;;;6.97;3.60;;;14.80;99.90;;;;;;5110148;28;21068;-48
2023/06/15 04:49:23;;;;;;;7.63;4.40;;;14.90;99.90;;;;;;5114005;28;20877;-48
2023/06/15 04:51:51;;;;;;;4.83;4.20;;;14.90;99.90;;;;;;5112972;28;20477;-52
2023/06/15 04:54:19;;;;;;;6.00;4.80;;;15.00;99.90;;;;;;5106139;28;20498;-48
2023/06/15 04:56:46;;;;;;;4.63;3.53;;;15.10;99.90;;;;;;5112907;28;20858;-48
2023/06/15 04:59:13;;;;;;;6.10;5.07;;;15.10;99.90;;;;;;5114506;28;20956;-48
2023/06/15 05:01:40;;;;;;;7.30;5.07;;;15.10;99.90;;;;;;5105280;28;20507;-48
2023/06/15 05:04:06;;;;;;;6.30;4.60;;;15.10;99.90;;;;;;5102218;28;20523;-50
2023/06/15 05:06:33;;;;;;;6.70;4.40;;;15.10;99.90;;;;;;5103547;28;20551;-48
2023/06/15 05:09:00;;;;;;;7.03;4.87;;;15.10;99.90;;;;;;5099771;28;20509;-49
2023/06/15 05:11:28;;;;;;;6.60;5.07;;;15.10;99.90;;;;;;5094058;28;20903;-49
2023/06/15 05:13:55;;;;;;;5.67;5.07;;;15.10;99.90;;;;;;5102202;28;20500;-49
2023/06/15 05:16:22;;;;;;;5.47;4.47;;;15.10;99.90;;;;;;5096548;28;20921;-49
2023/06/15 05:18:50;;;;;;;9.10;4.93;;;15.20;99.90;;;;;;5092436;28;20451;-51
2023/06/15 05:21:18;;;;;;;6.60;4.60;;;15.00;99.90;;;;;;5091802;28;21009;-52
2023/06/15 05:23:45;;;;;;;6.00;5.00;;;14.70;99.90;;;;;;5093920;28;20446;-48
2023/06/15 05:26:13;;;;;;;4.53;3.80;;;14.60;99.90;;;;;;5094989;28;20494;-48
2023/06/15 05:28:41;;;;;;;5.00;4.50;;;14.70;99.90;;;;;;5102450;28;20950;-51
2023/06/15 05:31:08;;;;;;;4.63;3.57;;;14.70;99.90;;;;;;5099793;28;20459;-51
2023/06/15 05:33:35;;;;;;;6.80;4.43;;;14.90;99.90;;;;;;5091463;28;20454;-48
2023/06/15 05:36:02;;;;;;;5.70;5.10;;;15.00;99.90;;;;;;5093291;28;20468;-50
2023/06/15 05:38:29;;;;;;;6.70;4.77;;;15.10;99.90;;;;;;5093758;28;20473;-48
2023/06/15 05:40:56;;;;;;;5.80;4.13;;;15.10;99.90;;;;;;5093434;28;20467;-49
2023/06/15 05:43:23;;;;;;;6.70;5.00;;;15.10;99.90;;;;;;5093848;28;20455;-48
2023/06/15 05:45:51;;;;;;;5.60;4.93;;;15.00;99.90;;;;;;5105186;28;20707;-49
2023/06/15 05:48:19;;;;;;;5.63;4.70;;;15.00;99.90;;;;;;5101459;28;21024;-53
2023/06/15 05:50:46;;;;;;;9.37;5.80;;;15.10;99.90;;;;;;5104672;28;20460;-49
2023/06/15 05:53:13;;;;;;;6.13;4.80;;;15.10;99.90;;;;;;5109097;28;20443;-49
2023/06/15 05:55:40;;;;;;;6.47;5.23;;;15.20;99.90;;;;;;5091982;28;20443;-48
2023/06/15 05:58:07;;;;;;;5.50;4.50;;;15.30;99.90;;;;;;5088976;28;20496;-49
2023/06/15 06:00:34;;;;;;;6.30;5.10;;;15.40;99.90;;;;;;5091392;28;20554;-49
2023/06/15 06:03:02;;;;;;;7.30;4.83;;;15.50;99.90;;;;;;5092946;28;20479;-49
2023/06/15 06:05:30;;;;;;;4.10;3.60;;;15.60;99.90;;;;;;5092702;28;20530;-49
2023/06/15 06:07:56;;;;;;;6.23;4.40;;;15.80;99.90;;;;;;5092717;28;20485;-51
2023/06/15 06:10:23;;;;;;;6.00;4.50;;;16.10;99.90;;;;;;5091721;28;20516;-49
2023/06/15 06:12:50;;;;;;;6.27;5.10;;;16.30;99.90;;;;;;5091234;28;20917;-50
2023/06/15 06:15:17;;;;;;;7.33;5.30;;;16.40;99.90;;;;;;5091390;28;20547;-49
2023/06/15 06:17:44;;;;;;;6.33;4.50;;;16.60;99.90;;;;;;5092040;28;20468;-51
2023/06/15 06:20:13;;;;;;;7.00;4.53;;;16.70;99.90;;;;;;5092221;28;20465;-48
2023/06/15 06:22:41;;;;;;;6.83;4.27;;;16.80;99.90;;;;;;5090729;28;20532;-51
2023/06/15 06:25:08;;;;;;;5.40;4.50;;;16.80;99.70;;;;;;5091644;28;20955;-49
2023/06/15 06:27:36;;;;;;;5.73;4.67;;;16.90;99.90;;;;;;5092362;28;21023;-49
2023/06/15 06:30:03;;;;;;;4.87;3.80;;;16.90;99.00;;;;;;5090394;28;20459;-52
2023/06/15 06:32:30;;;;;;;6.00;4.53;;;16.90;99.00;;;;;;5092429;28;20536;-49
2023/06/15 06:34:57;;;;;;;5.43;4.50;;;17.00;99.90;;;;;;5092017;28;20529;-51
2023/06/15 06:37:25;;;;;;;7.20;4.83;;;17.00;99.90;;;;;;5091856;28;20516;-49
2023/06/15 06:39:52;;;;;;;8.00;5.10;;;17.10;99.90;;;;;;5092312;28;20462;-49
2023/06/15 06:42:19;;;;;;;9.93;5.80;;;17.30;99.90;;;;;;5092072;28;20538;-50
2023/06/15 06:44:46;;;;;;;11.63;5.70;;;17.30;99.90;;;;;;5091767;28;21017;-49
2023/06/15 06:47:13;;;;;;;6.60;4.30;;;17.10;99.90;;;;;;5091465;28;20521;-49
2023/06/15 06:49:40;;;;;;;5.00;3.93;;;17.20;99.90;;;;;;5092207;28;20467;-48
2023/06/15 06:52:08;;;;;;;5.57;4.27;;;17.10;99.90;;;;;;5092017;28;20821;-49
2023/06/15 06:54:36;;;;;;;4.67;3.93;;;17.00;99.90;;;;;;5091390;28;20472;-51
2023/06/15 06:57:03;;;;;;;6.00;4.30;;;16.90;99.90;;;;;;5090065;28;20541;-49
2023/06/15 06:59:30;;;;;;;6.90;5.20;;;17.00;99.90;;;;;;5091574;28;20524;-52
2023/06/15 07:01:57;;;;;;;4.60;3.93;;;17.10;99.90;;;;;;5090005;28;20469;-49
2023/06/15 07:04:24;;;;;;;8.20;6.73;;;17.10;99.90;;;;;;5091292;28;20486;-53
2023/06/15 07:06:51;;;;;;;5.73;5.10;;;17.10;99.90;;;;;;5091957;28;20504;-49
2023/06/15 07:09:18;;;;;;;5.07;4.30;;;17.20;99.90;;;;;;5091399;28;20538;-49
2023/06/15 07:11:46;;;;;;;9.03;5.00;;;17.30;99.90;;;;;;5091405;28;20549;-49
2023/06/15 07:14:13;;;;;;;5.10;3.90;;;17.30;99.90;;;;;;5090637;28;20546;-50
2023/06/15 07:16:40;;;;;;;4.47;4.07;;;17.30;99.90;;;;;;5089531;28;21015;-51
2023/06/15 07:19:07;;;;;;;5.50;4.40;;;17.20;99.50;;;;;;5089920;28;20529;-52
2023/06/15 07:21:35;;;;;;;4.50;3.67;;;17.30;98.80;;;;;;5088411;28;20506;-49
2023/06/15 07:24:02;;;;;;;5.73;4.27;;;17.40;98.10;;;;;;5090429;28;20447;-49
2023/06/15 07:26:29;;;;;;;5.00;4.27;;;17.50;99.50;;;;;;5090327;28;20923;-49
2023/06/15 07:28:57;;;;;;;4.37;3.90;;;17.60;98.30;;;;;;5091077;28;20543;-49
2023/06/15 07:31:24;;;;;;;6.10;4.27;;;17.70;98.00;;;;;;5090968;28;20470;-49
2023/06/15 07:33:53;;;;;;;6.07;4.67;;;17.80;99.80;;;;;;5091381;28;20451;-49
2023/06/15 07:36:20;;;;;;;5.70;4.67;;;18.00;99.10;;;;;;5091172;28;20484;-49
2023/06/15 07:38:47;;;;;;;6.30;4.90;;;18.20;99.00;;;;;;5091178;28;20435;-49
2023/06/15 07:41:14;;;;;;;4.60;4.03;;;18.30;99.10;;;;;;5089728;28;20557;-51
2023/06/15 07:43:41;;;;;;;4.30;3.90;;;18.40;98.00;;;;;;5090038;28;20446;-49
2023/06/15 07:46:09;;;;;;;5.43;4.23;;;18.40;97.90;;;;;;5089592;28;20495;-54
2023/06/15 07:48:36;;;;;;;4.97;4.30;;;18.40;97.60;;;;;;5090449;28;20543;-51
2023/06/15 07:51:03;;;;;;;6.83;6.13;;;18.40;96.70;;;;;;5091521;28;20468;-49
2023/06/15 07:53:30;;;;;;;5.90;4.70;;;18.40;98.20;;;;;;5091977;28;20993;-53
2023/06/15 07:55:57;;;;;;;5.70;4.17;;;18.40;99.40;;;;;;5091416;28;20524;-49
2023/06/15 07:58:24;;;;;;;4.83;3.90;;;18.40;97.90;;;;;;5089829;28;20525;-50
2023/06/15 08:00:51;;;;;;;5.30;4.37;;;18.60;98.40;;;;;;5091936;28;20495;-47
2023/06/15 08:03:19;;;;;;;4.60;4.13;;;18.80;99.20;;;;;;5091672;28;20504;-46
2023/06/15 08:05:46;;;;;;;5.40;4.47;;;19.00;98.80;;;;;;5091354;28;20443;-46
2023/06/15 08:08:13;;;;;;;6.00;4.50;;;19.20;97.90;;;;;;5091406;28;20472;-49
2023/06/15 08:10:40;;;;;;;5.00;4.47;;;19.20;97.30;;;;;;5091441;28;20814;-47
2023/06/15 08:13:07;;;;;;;4.50;3.63;;;19.30;98.20;;;;;;5115675;22;20749;-51
2023/06/15 08:15:34;;;;;;;4.67;4.27;;;19.50;97.40;;;;;;5070758;28;20447;-49
2023/06/15 08:18:01;;;;;;;6.40;3.73;;;19.10;95.70;;;;;;5070980;28;20505;-51
2023/06/15 08:20:29;;;;;;;4.50;4.10;;;19.10;98.30;;;;;;5071132;28;20436;-49
2023/06/15 08:22:57;;;;;;;5.00;4.47;;;19.30;98.30;;;;;;5068843;28;20451;-50
2023/06/15 08:25:24;;;;;;;5.30;3.83;;;19.50;95.80;;;;;;5070156;28;20452;-48
2023/06/15 08:27:51;;;;;;;8.40;5.30;;;19.60;96.70;;;;;;5070404;28;20884;-49
2023/06/15 08:30:18;;;;;;;5.77;4.40;;;19.50;94.80;;;;;;5070793;28;20502;-53
2023/06/15 08:32:45;;;;;;;5.23;4.43;;;19.40;96.20;;;;;;5070621;28;20444;-48
2023/06/15 08:35:12;;;;;;;6.30;4.83;;;19.20;95.80;;;;;;5070395;28;20468;-48
2023/06/15 08:37:40;;;;;;;4.77;4.07;;;18.90;95.90;;;;;;5070100;28;20536;-51
2023/06/15 08:40:09;;;;;;;6.03;4.07;;;18.90;97.30;;;;;;5070306;28;20444;-50
2023/06/15 08:42:36;;;;;;;7.43;5.10;;;18.90;96.60;;;;;;5070521;28;20442;-49
2023/06/15 08:45:07;;;;;;;4.80;3.50;;;18.90;96.00;;;;;;5069980;28;21150;-53
2023/06/15 08:47:35;;;;;;;5.23;4.47;;;19.10;97.70;;;;;;5070272;28;20479;-49
2023/06/15 08:50:04;;;;;;;5.20;4.70;;;19.30;97.10;;;;;;5070295;28;20436;-50
2023/06/15 08:52:34;;;;;;;6.70;5.70;;;19.50;96.30;;;;;;5072314;28;20456;-50
2023/06/15 08:55:03;;;;;;;5.63;4.43;;;19.50;97.30;;;;;;5073576;28;20894;-51
2023/06/15 08:57:32;;;;;;;7.20;4.20;;;19.50;97.10;;;;;;5072317;28;20436;-49
2023/06/15 08:59:59;;;;;;;8.20;5.40;;;19.50;96.40;;;;;;5074050;28;20533;-49
2023/06/15 09:02:26;;;;;;;5.10;4.27;;;19.60;97.70;;;;;;5073962;28;20472;-50
2023/06/15 09:04:53;;;;;;;5.00;4.40;;;19.60;96.20;;;;;;5073559;28;20861;-49
2023/06/15 09:07:21;;;;;;;5.20;4.00;;;19.90;98.10;;;;;;5073397;28;20515;-49
2023/06/15 09:10:23;;;;;;;10.17;4.30;;;19.90;97.80;;;;;;5074291;28;20488;-50
2023/06/15 09:12:52;;;;;;;4.33;3.67;;;20.10;97.10;;;;;;5073546;28;20479;-54
2023/06/15 09:15:21;;;;;;;4.40;3.60;;;20.30;96.50;;;;;;5073022;28;21003;-49
2023/06/15 09:17:50;;;;;;;5.40;3.63;;;20.40;97.00;;;;;;5073634;28;20869;-49
2023/06/15 09:20:19;;;;;;;7.80;5.73;;;20.70;97.70;;;;;;5073675;28;20441;-50
2023/06/15 09:22:47;;;;;;;5.70;4.30;;;20.90;96.00;;;;;;5071803;28;20884;-53
2023/06/15 09:25:16;;;;;;;5.77;4.17;;;21.20;96.70;;;;;;5072772;28;21080;-48
2023/06/15 09:27:53;;;;;;;4.77;4.10;;;21.20;96.90;;;;;;5072955;28;20495;-51
2023/06/15 09:30:22;;;;;;;5.00;4.20;;;21.30;95.80;;;;;;5073720;28;20441;-49
2023/06/15 09:32:48;;;;;;;6.40;4.67;;;21.40;95.80;;;;;;5073175;28;20441;-48
2023/06/15 09:35:15;;;;;;;8.50;4.93;;;21.50;95.40;;;;;;5072721;28;20503;-50
2023/06/15 09:37:43;;;;;;;5.73;3.70;;;21.60;96.30;;;;;;5073087;28;20982;-50
2023/06/15 09:40:12;;;;;;;5.10;4.00;;;21.70;94.20;;;;;;5073468;28;20506;-49
2023/06/15 09:42:41;;;;;;;5.97;4.43;;;21.60;93.30;;;;;;5071159;28;20503;-53
2023/06/15 09:45:10;;;;;;;4.30;3.67;;;21.40;94.40;;;;;;5072541;28;20464;-49
2023/06/15 09:47:39;;;;;;;5.10;4.27;;;21.30;94.30;;;;;;5072693;28;20471;-50
2023/06/15 09:50:10;;;;;;;5.20;3.50;;;21.30;94.80;;;;;;5072741;28;20994;-53
2023/06/15 09:52:42;;;;;;;6.17;4.33;;;21.40;94.40;;;;;;5073409;28;20448;-49
2023/06/15 09:55:10;;;;;;;4.77;4.07;;;21.40;96.00;;;;;;5072410;28;20464;-49
2023/06/15 09:57:37;;;;;;;4.47;3.70;;;21.60;94.40;;;;;;5072234;28;21035;-49
2023/06/15 10:00:08;;;;;;;6.10;4.10;;;21.60;93.50;;;;;;5072679;28;20962;-51
2023/06/15 10:02:39;;;;;;;5.57;3.70;;;21.70;92.50;;;;;;5072724;28;20951;-50
2023/06/15 10:05:13;;;;;;;5.03;3.90;;;21.60;91.90;;;;;;5071782;28;20472;-48
2023/06/15 10:07:48;;;;;;;4.13;3.40;;;21.70;92.40;;;;;;5072187;28;20480;-53
2023/06/15 10:10:17;;;;;;;7.50;4.33;;;21.30;90.60;;;;;;5072777;28;20517;-49
2023/06/15 10:12:51;;;;;;;5.70;3.70;;;21.20;91.00;;;;;;5072140;28;20472;-49
2023/06/15 10:15:20;;;;;;;6.10;4.17;;;21.00;91.70;;;;;;5071970;28;20476;-49
2023/06/15 10:17:52;;;;;;;4.77;3.53;;;20.80;83.70;;;;;;5072424;28;20436;-49
2023/06/15 10:20:23;;;;;;;5.27;3.70;;;20.80;89.80;;;;;;5069529;28;20850;-53
2023/06/15 10:22:57;;;;;;;5.43;3.73;;;20.70;83.10;;;;;;5070468;28;20441;-51
2023/06/15 10:25:24;;;;;;;5.67;4.03;;;20.70;89.00;;;;;;5068589;28;20810;-50
2023/06/15 10:27:51;;;;;;;5.90;3.60;;;20.90;90.80;;;;;;5060947;28;20468;-53
2023/06/15 10:30:29;;;;;;;5.17;4.20;;;21.10;85.10;;;;;;5058130;28;20507;-51
2023/06/15 10:33:06;;;;;;;4.93;4.00;;;21.20;83.10;;;;;;5059193;28;20491;-50
2023/06/15 10:35:38;;;;;;;5.97;3.73;;;21.30;83.60;;;;;;5058930;28;20433;-51
2023/06/15 10:38:17;;;;;;;5.43;3.40;;;21.30;88.70;;;;;;5060778;28;20434;-49
2023/06/15 10:40:48;;;;;;;4.93;3.40;;;21.30;88.00;;;;;;5060855;28;20574;-49
2023/06/15 10:43:18;;;;;;;5.27;3.53;;;21.40;88.70;;;;;;5064281;28;20441;-49
2023/06/15 10:45:46;;;;;;;4.70;3.53;;;21.40;90.40;;;;;;5072011;28;20441;-49
2023/06/15 10:48:23;;;;;;;5.77;3.90;;;21.40;91.00;;;;;;5071531;28;20480;-50
2023/06/15 10:50:52;;;;;;;4.80;3.90;;;21.40;90.10;;;;;;5071508;28;20455;-54
2023/06/15 10:53:27;;;;;;;4.93;3.60;;;21.40;90.60;;;;;;5069534;28;20994;-51
2023/06/15 10:55:55;;;;;;;5.57;3.77;;;21.50;91.30;;;;;;5069494;28;20464;-49
2023/06/15 10:58:24;;;;;;;6.70;4.03;;;21.70;92.00;;;;;;5070169;28;20433;-52
2023/06/15 11:01:07;;;;;;;7.30;4.27;;;21.90;91.00;;;;;;5070318;28;20437;-52
2023/06/15 11:03:36;;;;;;;5.83;3.63;;;22.00;88.30;;;;;;5070363;28;20468;-50
2023/06/15 11:06:06;;;;;;;4.93;3.80;;;22.20;90.90;;;;;;5070018;28;20528;-52
2023/06/15 11:08:44;;;;;;;5.30;3.60;;;22.40;86.30;;;;;;5069558;28;21089;-50
2023/06/15 11:11:12;;;;;;;6.93;3.60;;;22.10;79.50;;;;;;5068489;28;20539;-49
2023/06/15 11:13:54;;;;;;;5.50;4.03;;;21.90;85.20;;;;;;5068376;28;20679;-49
2023/06/15 11:16:25;;;;;;;5.33;3.77;;;21.90;88.80;;;;;;5068413;28;20428;-51
2023/06/15 11:18:58;;;;;;;4.40;3.43;;;21.70;83.00;;;;;;5069319;28;20466;-50
2023/06/15 11:21:27;;;;;;;5.37;3.77;;;21.60;89.40;;;;;;5067852;28;20938;-49
2023/06/15 11:23:59;;;;;;;4.40;3.47;;;21.50;83.20;;;;;;5069813;28;20888;-49
2023/06/15 11:26:29;;;;;;;5.20;3.23;;;21.50;82.10;;;;;;5071030;28;20532;-50
2023/06/15 11:29:01;;;;;;;5.63;3.93;;;21.60;86.20;;;;;;5070905;28;21079;-53
2023/06/15 11:31:28;;;;;;;4.40;4.00;;;21.80;89.40;;;;;;5070932;28;20498;-48
2023/06/15 11:33:58;;;;;;;3.53;3.03;;;22.00;85.60;;;;;;5071073;28;20826;-50
2023/06/15 11:36:25;;;;;;;3.80;2.83;;;22.20;88.20;;;;;;5070713;28;20532;-52
2023/06/15 11:38:53;;;;;;;4.60;3.50;;;22.30;87.40;;;;;;5070862;28;20440;-49
2023/06/15 11:41:20;;;;;;;5.43;3.97;;;22.30;87.90;;;;;;5071059;28;20543;-49
2023/06/15 11:43:49;;;;;;;5.17;3.60;;;22.10;83.80;;;;;;5069295;28;20555;-49
2023/06/15 11:46:18;;;;;;;4.90;3.87;;;21.90;82.50;;;;;;5071057;28;20444;-51
2023/06/15 11:48:45;;;;;;;6.17;3.93;;;21.70;85.40;;;;;;5070997;28;20476;-50
2023/06/15 11:51:15;;;;;;;5.57;3.80;;;21.50;85.80;;;;;;5071260;28;20486;-49
2023/06/15 11:53:42;;;;;;;4.80;3.93;;;21.30;80.80;;;;;;5070827;28;21045;-50
2023/06/15 11:56:12;;;;;;;4.20;3.73;;;21.30;82.60;;;;;;5070571;28;20539;-53
2023/06/15 11:58:40;;;;;;;4.50;3.20;;;21.40;85.50;;;;;;5070969;28;20524;-49
2023/06/15 12:01:07;;;;;;;4.90;3.00;;;21.70;89.10;;;;;;5070903;28;20484;-49
2023/06/15 12:03:37;;;;;;;5.70;4.00;;;21.90;91.30;;;;;;5070991;28;20583;-53
2023/06/15 12:06:05;;;;;;;4.50;3.30;;;22.10;85.70;;;;;;5070911;28;20521;-52
2023/06/15 12:08:33;;;;;;;4.17;2.87;;;22.10;87.00;;;;;;5070707;28;20476;-50
2023/06/15 12:11:01;;;;;;;4.57;3.13;;;22.00;88.50;;;;;;5070726;28;20523;-48
2023/06/15 12:13:27;;;;;;;3.77;3.20;;;21.90;85.50;;;;;;5071047;28;20472;-49
2023/06/15 12:15:54;;;;;;;5.43;4.10;;;21.80;83.90;;;;;;5069962;28;20464;-54
2023/06/15 12:18:21;;;;;;;5.33;3.40;;;21.60;81.20;;;;;;5069868;28;20523;-50
2023/06/15 12:20:49;;;;;;;5.20;3.83;;;21.50;83.10;;;;;;5070955;28;20445;-49
2023/06/15 12:23:29;;;;;;;5.40;3.67;;;21.40;77.80;;;;;;5069007;28;20468;-50
2023/06/15 12:25:58;;;;;;;6.77;3.57;;;21.30;79.50;;;;;;5070307;28;20925;-49
2023/06/15 12:28:26;;;;;;;8.53;3.87;;;21.30;77.20;;;;;;5073923;28;20523;-51
2023/06/15 12:30:58;;;;;;;4.10;3.43;;;21.30;82.70;;;;;;5074781;28;20535;-51
2023/06/15 12:33:27;;;;;;;9.80;4.07;;;21.30;83.60;;;;;;5074661;28;20472;-51
2023/06/15 12:35:54;;;;;;;5.57;3.73;;;21.30;80.80;;;;;;5073928;28;20582;-50
2023/06/15 12:38:23;;;;;;;13.83;3.70;;;21.30;80.60;;;;;;5073866;28;20452;-52
2023/06/15 12:40:50;;;;;;;5.10;2.93;;;21.40;79.50;;;;;;5074678;28;20444;-52
2023/06/15 12:43:18;;;;;;;5.10;3.90;;;21.60;81.70;;;;;;5072458;28;20496;-49
2023/06/15 12:45:46;;;;;;;4.97;3.87;;;21.90;84.30;;;;;;5073745;28;20450;-49
2023/06/15 12:48:13;;;;;;;5.20;2.97;;;22.00;86.30;;;;;;5074337;28;20440;-49
2023/06/15 12:50:40;;;;;;;4.10;2.77;;;22.10;85.20;;;;;;5074356;28;20464;-52
2023/06/15 12:53:07;;;;;;;4.77;4.00;;;22.10;91.00;;;;;;5074117;28;21025;-50